sensor_id;sensor_type;location;lat;lon;timestamp;P1;durP1;ratioP1;P2;durP2;ratioP2
22826;SDS011;11580;52.562;13.418;2022-10-26T00:00:24;7.50;;;6.80;;
22826;SDS011;11580;52.562;13.418;2022-10-26T00:02:54;7.60;;;6.87;;
22826;SDS011;11580;52.562;13.418;2022-10-26T00:05:23;7.60;;;6.90;;
22826;SDS011;11580;52.562;13.418;2022-10-26T00:07:50;7.70;;;7.10;;
22826;SDS011;11580;52.562;13.418;2022-10-26T00:10:17;6.93;;;6.40;;
22826;SDS011;11580;52.562;13.418;2022-10-26T00:12:47;7.07;;;6.37;;
22826;SDS011;11580;52.562;13.418;2022-10-26T00:15:16;9.77;;;6.87;;
22826;SDS011;11580;52.562;13.418;2022-10-26T00:17:43;7.20;;;6.50;;
22826;SDS011;11580;52.562;13.418;2022-10-26T00:20:11;7.70;;;7.00;;
22826;SDS011;11580;52.562;13.418;2022-10-26T00:22:40;8.20;;;7.40;;
22826;SDS011;11580;52.562;13.418;2022-10-26T00:25:07;7.20;;;6.50;;
22826;SDS011;11580;52.562;13.418;2022-10-26T00:27:35;8.47;;;7.67;;
22826;SDS011;11580;52.562;13.418;2022-10-26T00:30:03;7.90;;;7.20;;
22826;SDS011;11580;52.562;13.418;2022-10-26T00:32:32;8.03;;;7.13;;
22826;SDS011;11580;52.562;13.418;2022-10-26T00:34:59;8.20;;;7.57;;
22826;SDS011;11580;52.562;13.418;2022-10-26T00:37:28;7.73;;;7.07;;
22826;SDS011;11580;52.562;13.418;2022-10-26T00:39:56;7.70;;;7.10;;
22826;SDS011;11580;52.562;13.418;2022-10-26T00:42:23;7.27;;;6.67;;
22826;SDS011;11580;52.562;13.418;2022-10-26T00:44:57;9.70;;;7.30;;
22826;SDS011;11580;52.562;13.418;2022-10-26T00:47:37;7.67;;;6.87;;
22826;SDS011;11580;52.562;13.418;2022-10-26T00:50:10;8.13;;;7.33;;
22826;SDS011;11580;52.562;13.418;2022-10-26T00:52:43;9.03;;;7.33;;
22826;SDS011;11580;52.562;13.418;2022-10-26T00:55:12;8.13;;;7.43;;
22826;SDS011;11580;52.562;13.418;2022-10-26T00:57:39;7.83;;;7.13;;
22826;SDS011;11580;52.562;13.418;2022-10-26T01:00:07;7.80;;;7.10;;
22826;SDS011;11580;52.562;13.418;2022-10-26T01:02:35;8.43;;;7.30;;
22826;SDS011;11580;52.562;13.418;2022-10-26T01:05:02;8.00;;;7.17;;
22826;SDS011;11580;52.562;13.418;2022-10-26T01:07:32;7.93;;;7.23;;
22826;SDS011;11580;52.562;13.418;2022-10-26T01:10:01;7.40;;;6.80;;
22826;SDS011;11580;52.562;13.418;2022-10-26T01:12:30;8.73;;;7.83;;
22826;SDS011;11580;52.562;13.418;2022-10-26T01:14:57;7.40;;;6.70;;
22826;SDS011;11580;52.562;13.418;2022-10-26T01:17:32;8.13;;;7.33;;
22826;SDS011;11580;52.562;13.418;2022-10-26T01:23:52;7.30;;;6.60;;
22826;SDS011;11580;52.562;13.418;2022-10-26T01:26:52;7.43;;;6.37;;
22826;SDS011;11580;52.562;13.418;2022-10-26T01:29:46;7.60;;;6.83;;
22826;SDS011;11580;52.562;13.418;2022-10-26T01:32:54;6.57;;;5.97;;
22826;SDS011;11580;52.562;13.418;2022-10-26T01:35:48;8.67;;;7.50;;
22826;SDS011;11580;52.562;13.418;2022-10-26T01:38:28;7.30;;;6.50;;
22826;SDS011;11580;52.562;13.418;2022-10-26T01:41:07;7.17;;;6.57;;
22826;SDS011;11580;52.562;13.418;2022-10-26T01:43:41;7.43;;;6.83;;
22826;SDS011;11580;52.562;13.418;2022-10-26T01:46:15;6.87;;;6.23;;
22826;SDS011;11580;52.562;13.418;2022-10-26T01:48:45;6.73;;;5.83;;
22826;SDS011;11580;52.562;13.418;2022-10-26T01:51:17;7.60;;;6.90;;
22826;SDS011;11580;52.562;13.418;2022-10-26T01:53:47;6.50;;;5.83;;
22826;SDS011;11580;52.562;13.418;2022-10-26T01:56:16;8.17;;;7.37;;
22826;SDS011;11580;52.562;13.418;2022-10-26T01:58:51;8.13;;;7.33;;
22826;SDS011;11580;52.562;13.418;2022-10-26T02:02:04;7.77;;;7.10;;
22826;SDS011;11580;52.562;13.418;2022-10-26T02:05:12;7.30;;;6.60;;
22826;SDS011;11580;52.562;13.418;2022-10-26T02:08:11;7.77;;;6.97;;
22826;SDS011;11580;52.562;13.418;2022-10-26T02:11:00;8.00;;;7.40;;
22826;SDS011;11580;52.562;13.418;2022-10-26T02:13:39;8.43;;;7.60;;
22826;SDS011;11580;52.562;13.418;2022-10-26T02:16:14;8.00;;;7.27;;
22826;SDS011;11580;52.562;13.418;2022-10-26T02:18:50;7.87;;;7.17;;
22826;SDS011;11580;52.562;13.418;2022-10-26T02:21:30;7.77;;;7.17;;
22826;SDS011;11580;52.562;13.418;2022-10-26T02:24:03;8.90;;;7.73;;
22826;SDS011;11580;52.562;13.418;2022-10-26T02:26:34;8.73;;;7.93;;
22826;SDS011;11580;52.562;13.418;2022-10-26T02:29:06;7.70;;;7.10;;
22826;SDS011;11580;52.562;13.418;2022-10-26T02:31:41;8.60;;;7.87;;
22826;SDS011;11580;52.562;13.418;2022-10-26T02:34:12;8.43;;;7.73;;
22826;SDS011;11580;52.562;13.418;2022-10-26T02:36:47;7.53;;;6.90;;
22826;SDS011;11580;52.562;13.418;2022-10-26T02:39:19;8.27;;;7.57;;
22826;SDS011;11580;52.562;13.418;2022-10-26T02:41:48;8.77;;;7.63;;
22826;SDS011;11580;52.562;13.418;2022-10-26T02:44:20;7.30;;;6.60;;
22826;SDS011;11580;52.562;13.418;2022-10-26T02:46:52;7.53;;;6.93;;
22826;SDS011;11580;52.562;13.418;2022-10-26T02:49:22;6.93;;;6.40;;
22826;SDS011;11580;52.562;13.418;2022-10-26T02:51:52;7.77;;;7.10;;
22826;SDS011;11580;52.562;13.418;2022-10-26T02:54:29;8.30;;;7.60;;
22826;SDS011;11580;52.562;13.418;2022-10-26T02:57:07;7.70;;;6.90;;
22826;SDS011;11580;52.562;13.418;2022-10-26T02:59:41;7.80;;;7.20;;
22826;SDS011;11580;52.562;13.418;2022-10-26T03:02:11;8.20;;;7.30;;
22826;SDS011;11580;52.562;13.418;2022-10-26T03:04:41;8.30;;;7.50;;
22826;SDS011;11580;52.562;13.418;2022-10-26T03:07:10;8.20;;;7.50;;
22826;SDS011;11580;52.562;13.418;2022-10-26T03:09:37;8.70;;;7.77;;
22826;SDS011;11580;52.562;13.418;2022-10-26T03:12:04;8.17;;;7.50;;
22826;SDS011;11580;52.562;13.418;2022-10-26T03:14:31;7.93;;;7.13;;
22826;SDS011;11580;52.562;13.418;2022-10-26T03:16:59;8.13;;;7.40;;
22826;SDS011;11580;52.562;13.418;2022-10-26T03:19:26;8.10;;;7.40;;
22826;SDS011;11580;52.562;13.418;2022-10-26T03:21:53;7.90;;;7.03;;
22826;SDS011;11580;52.562;13.418;2022-10-26T03:24:21;6.60;;;6.10;;
22826;SDS011;11580;52.562;13.418;2022-10-26T03:26:49;8.23;;;7.30;;
22826;SDS011;11580;52.562;13.418;2022-10-26T03:29:16;8.50;;;6.67;;
22826;SDS011;11580;52.562;13.418;2022-10-26T03:31:43;8.10;;;7.40;;
22826;SDS011;11580;52.562;13.418;2022-10-26T03:34:10;8.13;;;7.43;;
22826;SDS011;11580;52.562;13.418;2022-10-26T03:36:38;7.90;;;7.20;;
22826;SDS011;11580;52.562;13.418;2022-10-26T03:39:05;7.93;;;7.10;;
22826;SDS011;11580;52.562;13.418;2022-10-26T03:41:33;7.20;;;6.60;;
22826;SDS011;11580;52.562;13.418;2022-10-26T03:44:00;7.03;;;6.43;;
22826;SDS011;11580;52.562;13.418;2022-10-26T03:46:27;8.30;;;6.90;;
22826;SDS011;11580;52.562;13.418;2022-10-26T03:48:55;7.63;;;7.03;;
22826;SDS011;11580;52.562;13.418;2022-10-26T03:51:22;8.30;;;7.40;;
22826;SDS011;11580;52.562;13.418;2022-10-26T03:53:49;8.47;;;7.70;;
22826;SDS011;11580;52.562;13.418;2022-10-26T03:56:16;11.83;;;7.50;;
22826;SDS011;11580;52.562;13.418;2022-10-26T03:58:45;7.50;;;6.80;;
22826;SDS011;11580;52.562;13.418;2022-10-26T04:01:12;11.17;;;7.63;;
22826;SDS011;11580;52.562;13.418;2022-10-26T04:03:39;6.87;;;6.27;;
22826;SDS011;11580;52.562;13.418;2022-10-26T04:06:06;8.57;;;7.80;;
22826;SDS011;11580;52.562;13.418;2022-10-26T04:08:33;8.60;;;6.70;;
22826;SDS011;11580;52.562;13.418;2022-10-26T04:11:01;7.30;;;6.70;;
22826;SDS011;11580;52.562;13.418;2022-10-26T04:13:28;7.03;;;6.37;;
22826;SDS011;11580;52.562;13.418;2022-10-26T04:15:57;7.80;;;7.03;;
22826;SDS011;11580;52.562;13.418;2022-10-26T04:18:24;8.80;;;7.03;;
22826;SDS011;11580;52.562;13.418;2022-10-26T04:20:51;8.30;;;7.60;;
22826;SDS011;11580;52.562;13.418;2022-10-26T04:23:18;7.53;;;6.93;;
22826;SDS011;11580;52.562;13.418;2022-10-26T04:25:45;7.70;;;6.90;;
22826;SDS011;11580;52.562;13.418;2022-10-26T04:28:13;7.47;;;6.70;;
22826;SDS011;11580;52.562;13.418;2022-10-26T04:30:40;7.40;;;6.70;;
22826;SDS011;11580;52.562;13.418;2022-10-26T04:33:09;8.20;;;7.40;;
22826;SDS011;11580;52.562;13.418;2022-10-26T04:35:36;6.70;;;6.10;;
22826;SDS011;11580;52.562;13.418;2022-10-26T04:38:04;7.50;;;6.80;;
22826;SDS011;11580;52.562;13.418;2022-10-26T04:40:33;7.17;;;6.60;;
22826;SDS011;11580;52.562;13.418;2022-10-26T04:43:01;7.80;;;7.10;;
22826;SDS011;11580;52.562;13.418;2022-10-26T04:45:29;7.13;;;6.43;;
22826;SDS011;11580;52.562;13.418;2022-10-26T04:48:00;6.53;;;5.93;;
22826;SDS011;11580;52.562;13.418;2022-10-26T04:50:31;7.63;;;6.80;;
22826;SDS011;11580;52.562;13.418;2022-10-26T04:53:01;6.80;;;6.13;;
22826;SDS011;11580;52.562;13.418;2022-10-26T04:55:29;7.57;;;6.77;;
22826;SDS011;11580;52.562;13.418;2022-10-26T04:57:56;7.13;;;6.47;;
22826;SDS011;11580;52.562;13.418;2022-10-26T05:00:23;7.17;;;6.57;;
22826;SDS011;11580;52.562;13.418;2022-10-26T05:02:50;9.07;;;7.17;;
22826;SDS011;11580;52.562;13.418;2022-10-26T05:05:18;9.10;;;6.40;;
22826;SDS011;11580;52.562;13.418;2022-10-26T05:07:53;6.43;;;5.93;;
22826;SDS011;11580;52.562;13.418;2022-10-26T05:10:21;7.37;;;6.77;;
22826;SDS011;11580;52.562;13.418;2022-10-26T05:12:49;7.50;;;6.80;;
22826;SDS011;11580;52.562;13.418;2022-10-26T05:15:17;6.90;;;6.40;;
22826;SDS011;11580;52.562;13.418;2022-10-26T05:17:44;6.93;;;6.33;;
22826;SDS011;11580;52.562;13.418;2022-10-26T05:20:12;8.07;;;7.33;;
22826;SDS011;11580;52.562;13.418;2022-10-26T05:22:39;7.63;;;7.03;;
22826;SDS011;11580;52.562;13.418;2022-10-26T05:25:08;8.40;;;7.60;;
22826;SDS011;11580;52.562;13.418;2022-10-26T05:27:35;7.43;;;6.60;;
22826;SDS011;11580;52.562;13.418;2022-10-26T05:30:02;7.10;;;6.40;;
22826;SDS011;11580;52.562;13.418;2022-10-26T05:32:30;7.70;;;6.50;;
22826;SDS011;11580;52.562;13.418;2022-10-26T05:34:57;8.00;;;7.30;;
22826;SDS011;11580;52.562;13.418;2022-10-26T05:37:26;6.83;;;6.10;;
22826;SDS011;11580;52.562;13.418;2022-10-26T05:39:54;7.30;;;6.70;;
22826;SDS011;11580;52.562;13.418;2022-10-26T05:42:22;7.07;;;6.50;;
22826;SDS011;11580;52.562;13.418;2022-10-26T05:44:49;7.67;;;7.07;;
22826;SDS011;11580;52.562;13.418;2022-10-26T05:47:17;7.70;;;7.10;;
22826;SDS011;11580;52.562;13.418;2022-10-26T05:49:44;7.33;;;6.70;;
22826;SDS011;11580;52.562;13.418;2022-10-26T05:52:12;6.90;;;6.30;;
22826;SDS011;11580;52.562;13.418;2022-10-26T05:54:39;6.93;;;6.40;;
22826;SDS011;11580;52.562;13.418;2022-10-26T05:57:08;8.27;;;6.07;;
22826;SDS011;11580;52.562;13.418;2022-10-26T05:59:39;6.90;;;6.20;;
22826;SDS011;11580;52.562;13.418;2022-10-26T06:02:08;7.47;;;6.37;;
22826;SDS011;11580;52.562;13.418;2022-10-26T06:04:50;7.53;;;6.90;;
22826;SDS011;11580;52.562;13.418;2022-10-26T06:07:27;7.13;;;6.43;;
22826;SDS011;11580;52.562;13.418;2022-10-26T06:09:55;7.20;;;6.50;;
22826;SDS011;11580;52.562;13.418;2022-10-26T06:12:23;6.43;;;5.83;;
22826;SDS011;11580;52.562;13.418;2022-10-26T06:14:53;6.87;;;6.30;;
22826;SDS011;11580;52.562;13.418;2022-10-26T06:17:25;6.63;;;6.03;;
22826;SDS011;11580;52.562;13.418;2022-10-26T06:20:13;7.10;;;6.40;;
22826;SDS011;11580;52.562;13.418;2022-10-26T06:23:04;7.53;;;6.70;;
22826;SDS011;11580;52.562;13.418;2022-10-26T06:25:51;7.17;;;6.63;;
22826;SDS011;11580;52.562;13.418;2022-10-26T06:28:31;9.17;;;7.10;;
22826;SDS011;11580;52.562;13.418;2022-10-26T06:31:09;7.20;;;6.60;;
22826;SDS011;11580;52.562;13.418;2022-10-26T06:33:39;7.30;;;6.70;;
22826;SDS011;11580;52.562;13.418;2022-10-26T06:36:10;7.23;;;6.53;;
22826;SDS011;11580;52.562;13.418;2022-10-26T06:38:47;8.83;;;7.13;;
22826;SDS011;11580;52.562;13.418;2022-10-26T06:41:19;7.90;;;7.20;;
22826;SDS011;11580;52.562;13.418;2022-10-26T06:43:48;8.63;;;7.47;;
22826;SDS011;11580;52.562;13.418;2022-10-26T06:46:21;8.17;;;7.47;;
22826;SDS011;11580;52.562;13.418;2022-10-26T06:49:05;9.00;;;8.20;;
22826;SDS011;11580;52.562;13.418;2022-10-26T06:51:42;8.00;;;7.03;;
22826;SDS011;11580;52.562;13.418;2022-10-26T06:54:17;12.03;;;8.20;;
22826;SDS011;11580;52.562;13.418;2022-10-26T06:56:53;8.33;;;7.53;;
22826;SDS011;11580;52.562;13.418;2022-10-26T06:59:27;7.80;;;7.13;;
22826;SDS011;11580;52.562;13.418;2022-10-26T07:02:04;7.63;;;6.90;;
22826;SDS011;11580;52.562;13.418;2022-10-26T07:04:31;7.70;;;7.00;;
22826;SDS011;11580;52.562;13.418;2022-10-26T07:06:58;7.40;;;6.80;;
22826;SDS011;11580;52.562;13.418;2022-10-26T07:09:26;8.97;;;8.20;;
22826;SDS011;11580;52.562;13.418;2022-10-26T07:11:53;8.13;;;7.43;;
22826;SDS011;11580;52.562;13.418;2022-10-26T07:14:20;8.80;;;8.00;;
22826;SDS011;11580;52.562;13.418;2022-10-26T07:16:47;10.43;;;9.07;;
22826;SDS011;11580;52.562;13.418;2022-10-26T07:19:16;9.43;;;8.53;;
22826;SDS011;11580;52.562;13.418;2022-10-26T07:21:43;7.93;;;7.23;;
22826;SDS011;11580;52.562;13.418;2022-10-26T07:24:10;9.20;;;8.30;;
22826;SDS011;11580;52.562;13.418;2022-10-26T07:26:37;9.00;;;8.20;;
22826;SDS011;11580;52.562;13.418;2022-10-26T07:29:04;10.03;;;8.60;;
22826;SDS011;11580;52.562;13.418;2022-10-26T07:31:32;15.33;;;8.33;;
22826;SDS011;11580;52.562;13.418;2022-10-26T07:33:59;9.40;;;8.50;;
22826;SDS011;11580;52.562;13.418;2022-10-26T07:36:28;10.10;;;8.33;;
22826;SDS011;11580;52.562;13.418;2022-10-26T07:38:56;8.60;;;7.90;;
22826;SDS011;11580;52.562;13.418;2022-10-26T07:41:23;9.90;;;8.40;;
22826;SDS011;11580;52.562;13.418;2022-10-26T07:43:50;10.30;;;9.27;;
22826;SDS011;11580;52.562;13.418;2022-10-26T07:46:17;8.53;;;7.73;;
22826;SDS011;11580;52.562;13.418;2022-10-26T07:48:44;9.20;;;8.27;;
22826;SDS011;11580;52.562;13.418;2022-10-26T07:51:11;8.97;;;8.13;;
22826;SDS011;11580;52.562;13.418;2022-10-26T07:53:40;8.80;;;8.10;;
22826;SDS011;11580;52.562;13.418;2022-10-26T07:56:08;8.80;;;8.10;;
22826;SDS011;11580;52.562;13.418;2022-10-26T07:58:36;10.30;;;9.40;;
22826;SDS011;11580;52.562;13.418;2022-10-26T08:01:04;8.83;;;7.90;;
22826;SDS011;11580;52.562;13.418;2022-10-26T08:03:32;9.07;;;8.27;;
22826;SDS011;11580;52.562;13.418;2022-10-26T08:05:59;10.33;;;9.33;;
22826;SDS011;11580;52.562;13.418;2022-10-26T08:08:28;10.87;;;9.83;;
22826;SDS011;11580;52.562;13.418;2022-10-26T08:10:57;9.77;;;8.73;;
22826;SDS011;11580;52.562;13.418;2022-10-26T08:13:24;10.30;;;9.20;;
22826;SDS011;11580;52.562;13.418;2022-10-26T08:15:55;10.10;;;9.10;;
22826;SDS011;11580;52.562;13.418;2022-10-26T08:18:23;9.60;;;8.80;;
22826;SDS011;11580;52.562;13.418;2022-10-26T08:20:50;11.03;;;9.93;;
22826;SDS011;11580;52.562;13.418;2022-10-26T08:23:17;11.97;;;10.87;;
22826;SDS011;11580;52.562;13.418;2022-10-26T08:25:45;11.47;;;10.30;;
22826;SDS011;11580;52.562;13.418;2022-10-26T08:28:14;10.40;;;9.57;;
22826;SDS011;11580;52.562;13.418;2022-10-26T08:30:41;10.27;;;9.37;;
22826;SDS011;11580;52.562;13.418;2022-10-26T08:33:08;10.80;;;9.60;;
22826;SDS011;11580;52.562;13.418;2022-10-26T08:35:36;11.00;;;10.03;;
22826;SDS011;11580;52.562;13.418;2022-10-26T08:38:03;9.33;;;8.43;;
22826;SDS011;11580;52.562;13.418;2022-10-26T08:40:31;10.03;;;9.13;;
22826;SDS011;11580;52.562;13.418;2022-10-26T08:43:03;10.67;;;9.57;;
22826;SDS011;11580;52.562;13.418;2022-10-26T08:45:46;9.90;;;9.10;;
22826;SDS011;11580;52.562;13.418;2022-10-26T08:48:21;9.00;;;8.20;;
22826;SDS011;11580;52.562;13.418;2022-10-26T08:50:54;9.60;;;8.80;;
22826;SDS011;11580;52.562;13.418;2022-10-26T08:53:28;9.30;;;8.40;;
22826;SDS011;11580;52.562;13.418;2022-10-26T08:56:06;9.40;;;8.13;;
22826;SDS011;11580;52.562;13.418;2022-10-26T08:58:44;8.07;;;7.30;;
22826;SDS011;11580;52.562;13.418;2022-10-26T09:01:16;10.77;;;8.13;;
22826;SDS011;11580;52.562;13.418;2022-10-26T09:03:44;9.00;;;7.40;;
22826;SDS011;11580;52.562;13.418;2022-10-26T09:09:07;9.13;;;8.33;;
22826;SDS011;11580;52.562;13.418;2022-10-26T09:11:46;8.60;;;7.77;;
22826;SDS011;11580;52.562;13.418;2022-10-26T09:14:31;11.77;;;8.40;;
22826;SDS011;11580;52.562;13.418;2022-10-26T09:17:15;8.60;;;7.80;;
22826;SDS011;11580;52.562;13.418;2022-10-26T09:19:59;8.50;;;7.70;;
22826;SDS011;11580;52.562;13.418;2022-10-26T09:22:44;8.70;;;7.90;;
22826;SDS011;11580;52.562;13.418;2022-10-26T09:25:22;8.07;;;7.37;;
22826;SDS011;11580;52.562;13.418;2022-10-26T09:27:54;7.63;;;7.07;;
22826;SDS011;11580;52.562;13.418;2022-10-26T09:30:27;8.50;;;7.80;;
22826;SDS011;11580;52.562;13.418;2022-10-26T09:32:56;8.07;;;7.27;;
22826;SDS011;11580;52.562;13.418;2022-10-26T09:35:26;8.53;;;7.83;;
22826;SDS011;11580;52.562;13.418;2022-10-26T09:38:05;8.10;;;7.40;;
22826;SDS011;11580;52.562;13.418;2022-10-26T09:40:44;9.70;;;8.40;;
22826;SDS011;11580;52.562;13.418;2022-10-26T09:43:22;8.30;;;7.50;;
22826;SDS011;11580;52.562;13.418;2022-10-26T09:45:55;8.90;;;8.10;;
22826;SDS011;11580;52.562;13.418;2022-10-26T09:48:25;8.80;;;8.10;;
22826;SDS011;11580;52.562;13.418;2022-10-26T09:51:00;9.03;;;7.93;;
22826;SDS011;11580;52.562;13.418;2022-10-26T09:53:28;9.13;;;7.33;;
22826;SDS011;11580;52.562;13.418;2022-10-26T09:55:59;8.60;;;7.80;;
22826;SDS011;11580;52.562;13.418;2022-10-26T09:58:31;8.53;;;7.73;;
22826;SDS011;11580;52.562;13.418;2022-10-26T10:01:08;8.20;;;7.50;;
22826;SDS011;11580;52.562;13.418;2022-10-26T10:03:47;8.93;;;7.70;;
22826;SDS011;11580;52.562;13.418;2022-10-26T10:06:42;8.23;;;7.53;;
22826;SDS011;11580;52.562;13.418;2022-10-26T10:09:11;7.87;;;7.17;;
22826;SDS011;11580;52.562;13.418;2022-10-26T10:11:42;7.93;;;7.23;;
22826;SDS011;11580;52.562;13.418;2022-10-26T10:14:19;8.23;;;7.57;;
22826;SDS011;11580;52.562;13.418;2022-10-26T10:16:50;8.60;;;7.77;;
22826;SDS011;11580;52.562;13.418;2022-10-26T10:19:24;7.50;;;6.90;;
22826;SDS011;11580;52.562;13.418;2022-10-26T10:21:54;8.27;;;7.57;;
22826;SDS011;11580;52.562;13.418;2022-10-26T10:24:25;8.07;;;6.53;;
22826;SDS011;11580;52.562;13.418;2022-10-26T10:26:55;8.03;;;7.30;;
22826;SDS011;11580;52.562;13.418;2022-10-26T10:29:26;7.17;;;6.37;;
22826;SDS011;11580;52.562;13.418;2022-10-26T10:31:57;7.30;;;6.70;;
22826;SDS011;11580;52.562;13.418;2022-10-26T10:34:28;8.60;;;6.60;;
22826;SDS011;11580;52.562;13.418;2022-10-26T10:37:00;7.43;;;6.80;;
22826;SDS011;11580;52.562;13.418;2022-10-26T10:39:37;7.10;;;6.43;;
22826;SDS011;11580;52.562;13.418;2022-10-26T10:42:14;7.00;;;6.40;;
22826;SDS011;11580;52.562;13.418;2022-10-26T10:44:46;7.57;;;6.67;;
22826;SDS011;11580;52.562;13.418;2022-10-26T10:47:22;6.67;;;6.03;;
22826;SDS011;11580;52.562;13.418;2022-10-26T10:49:53;6.53;;;5.97;;
22826;SDS011;11580;52.562;13.418;2022-10-26T10:52:26;5.60;;;5.20;;
22826;SDS011;11580;52.562;13.418;2022-10-26T10:55:00;6.20;;;5.70;;
22826;SDS011;11580;52.562;13.418;2022-10-26T10:57:55;5.40;;;5.00;;
22826;SDS011;11580;52.562;13.418;2022-10-26T11:00:34;4.87;;;4.47;;
22826;SDS011;11580;52.562;13.418;2022-10-26T11:03:17;4.90;;;4.50;;
22826;SDS011;11580;52.562;13.418;2022-10-26T11:06:16;4.43;;;4.03;;
22826;SDS011;11580;52.562;13.418;2022-10-26T11:08:47;4.43;;;4.03;;
22826;SDS011;11580;52.562;13.418;2022-10-26T11:11:22;4.13;;;3.80;;
22826;SDS011;11580;52.562;13.418;2022-10-26T11:13:58;3.83;;;3.53;;
22826;SDS011;11580;52.562;13.418;2022-10-26T11:16:32;4.10;;;3.70;;
22826;SDS011;11580;52.562;13.418;2022-10-26T11:19:11;3.80;;;3.50;;
22826;SDS011;11580;52.562;13.418;2022-10-26T11:21:47;3.50;;;3.20;;
22826;SDS011;11580;52.562;13.418;2022-10-26T11:24:20;3.63;;;3.33;;
22826;SDS011;11580;52.562;13.418;2022-10-26T11:26:54;5.17;;;3.63;;
22826;SDS011;11580;52.562;13.418;2022-10-26T11:29:29;7.00;;;3.10;;
22826;SDS011;11580;52.562;13.418;2022-10-26T11:32:06;5.50;;;3.23;;
22826;SDS011;11580;52.562;13.418;2022-10-26T11:34:47;5.00;;;3.00;;
22826;SDS011;11580;52.562;13.418;2022-10-26T11:37:24;3.83;;;3.27;;
22826;SDS011;11580;52.562;13.418;2022-10-26T11:40:03;3.10;;;2.90;;
22826;SDS011;11580;52.562;13.418;2022-10-26T11:42:49;3.10;;;2.80;;
22826;SDS011;11580;52.562;13.418;2022-10-26T11:45:27;3.30;;;2.90;;
22826;SDS011;11580;52.562;13.418;2022-10-26T11:48:00;4.37;;;2.70;;
22826;SDS011;11580;52.562;13.418;2022-10-26T11:50:42;2.80;;;2.60;;
22826;SDS011;11580;52.562;13.418;2022-10-26T11:53:16;2.83;;;2.63;;
22826;SDS011;11580;52.562;13.418;2022-10-26T11:55:48;3.27;;;2.90;;
22826;SDS011;11580;52.562;13.418;2022-10-26T11:58:18;3.50;;;2.93;;
22826;SDS011;11580;52.562;13.418;2022-10-26T12:00:52;3.20;;;2.90;;
22826;SDS011;11580;52.562;13.418;2022-10-26T12:03:25;3.33;;;3.10;;
22826;SDS011;11580;52.562;13.418;2022-10-26T12:06:00;2.97;;;2.70;;
22826;SDS011;11580;52.562;13.418;2022-10-26T12:08:29;3.23;;;3.00;;
22826;SDS011;11580;52.562;13.418;2022-10-26T12:11:04;2.50;;;2.30;;
22826;SDS011;11580;52.562;13.418;2022-10-26T12:13:44;2.87;;;2.60;;
22826;SDS011;11580;52.562;13.418;2022-10-26T12:16:18;3.37;;;2.87;;
22826;SDS011;11580;52.562;13.418;2022-10-26T12:19:08;3.20;;;2.90;;
22826;SDS011;11580;52.562;13.418;2022-10-26T12:21:45;2.80;;;2.53;;
22826;SDS011;11580;52.562;13.418;2022-10-26T12:24:25;2.77;;;2.40;;
22826;SDS011;11580;52.562;13.418;2022-10-26T12:26:57;3.40;;;2.47;;
22826;SDS011;11580;52.562;13.418;2022-10-26T12:29:34;2.63;;;2.40;;
22826;SDS011;11580;52.562;13.418;2022-10-26T12:41:25;2.50;;;2.30;;
22826;SDS011;11580;52.562;13.418;2022-10-26T12:43:56;2.77;;;2.40;;
22826;SDS011;11580;52.562;13.418;2022-10-26T12:46:39;2.37;;;2.17;;
22826;SDS011;11580;52.562;13.418;2022-10-26T12:52:45;2.70;;;2.40;;
22826;SDS011;11580;52.562;13.418;2022-10-26T12:55:29;2.30;;;2.10;;
22826;SDS011;11580;52.562;13.418;2022-10-26T13:08:16;2.63;;;2.43;;
22826;SDS011;11580;52.562;13.418;2022-10-26T13:10:58;2.80;;;2.60;;
22826;SDS011;11580;52.562;13.418;2022-10-26T13:13:30;2.60;;;2.40;;
22826;SDS011;11580;52.562;13.418;2022-10-26T13:15:59;3.20;;;2.83;;
22826;SDS011;11580;52.562;13.418;2022-10-26T13:18:28;2.80;;;2.60;;
22826;SDS011;11580;52.562;13.418;2022-10-26T13:21:01;2.83;;;2.63;;
22826;SDS011;11580;52.562;13.418;2022-10-26T13:23:34;4.27;;;2.90;;
22826;SDS011;11580;52.562;13.418;2022-10-26T13:26:07;2.63;;;2.43;;
22826;SDS011;11580;52.562;13.418;2022-10-26T13:28:44;2.43;;;2.33;;
22826;SDS011;11580;52.562;13.418;2022-10-26T13:34:20;3.07;;;2.73;;
22826;SDS011;11580;52.562;13.418;2022-10-26T13:36:52;2.90;;;2.47;;
22826;SDS011;11580;52.562;13.418;2022-10-26T13:39:42;2.93;;;2.40;;
22826;SDS011;11580;52.562;13.418;2022-10-26T13:42:14;3.00;;;2.50;;
22826;SDS011;11580;52.562;13.418;2022-10-26T13:44:48;3.07;;;2.60;;
22826;SDS011;11580;52.562;13.418;2022-10-26T13:47:21;2.47;;;2.03;;
22826;SDS011;11580;52.562;13.418;2022-10-26T13:49:55;2.67;;;2.43;;
22826;SDS011;11580;52.562;13.418;2022-10-26T13:52:32;2.63;;;2.27;;
22826;SDS011;11580;52.562;13.418;2022-10-26T13:55:06;3.03;;;2.60;;
22826;SDS011;11580;52.562;13.418;2022-10-26T13:57:44;2.50;;;2.30;;
22826;SDS011;11580;52.562;13.418;2022-10-26T14:00:27;3.20;;;3.00;;
22826;SDS011;11580;52.562;13.418;2022-10-26T14:02:55;3.37;;;3.07;;
22826;SDS011;11580;52.562;13.418;2022-10-26T14:05:22;3.30;;;3.00;;
22826;SDS011;11580;52.562;13.418;2022-10-26T14:07:50;3.17;;;2.87;;
22826;SDS011;11580;52.562;13.418;2022-10-26T14:10:22;3.20;;;2.90;;
22826;SDS011;11580;52.562;13.418;2022-10-26T14:12:55;2.90;;;2.27;;
22826;SDS011;11580;52.562;13.418;2022-10-26T14:15:24;3.90;;;3.10;;
22826;SDS011;11580;52.562;13.418;2022-10-26T14:17:55;2.90;;;2.70;;
22826;SDS011;11580;52.562;13.418;2022-10-26T14:20:25;3.10;;;2.80;;
22826;SDS011;11580;52.562;13.418;2022-10-26T14:22:56;3.00;;;2.80;;
22826;SDS011;11580;52.562;13.418;2022-10-26T14:25:24;4.77;;;2.30;;
22826;SDS011;11580;52.562;13.418;2022-10-26T14:27:55;3.00;;;2.60;;
22826;SDS011;11580;52.562;13.418;2022-10-26T14:30:23;3.37;;;2.40;;
22826;SDS011;11580;52.562;13.418;2022-10-26T14:32:54;3.03;;;2.03;;
22826;SDS011;11580;52.562;13.418;2022-10-26T14:35:23;2.70;;;2.23;;
22826;SDS011;11580;52.562;13.418;2022-10-26T14:37:55;2.03;;;1.83;;
22826;SDS011;11580;52.562;13.418;2022-10-26T14:40:27;1.60;;;1.50;;
22826;SDS011;11580;52.562;13.418;2022-10-26T14:43:01;2.43;;;2.23;;
22826;SDS011;11580;52.562;13.418;2022-10-26T14:45:31;3.20;;;2.33;;
22826;SDS011;11580;52.562;13.418;2022-10-26T14:48:01;2.27;;;2.00;;
22826;SDS011;11580;52.562;13.418;2022-10-26T14:50:31;1.97;;;1.80;;
22826;SDS011;11580;52.562;13.418;2022-10-26T14:53:01;2.63;;;1.60;;
22826;SDS011;11580;52.562;13.418;2022-10-26T14:55:42;2.40;;;2.20;;
22826;SDS011;11580;52.562;13.418;2022-10-26T14:58:16;2.40;;;2.20;;
22826;SDS011;11580;52.562;13.418;2022-10-26T15:03:57;2.93;;;2.20;;
22826;SDS011;11580;52.562;13.418;2022-10-26T15:09:29;2.30;;;2.10;;
22826;SDS011;11580;52.562;13.418;2022-10-26T15:12:03;3.50;;;2.40;;
22826;SDS011;11580;52.562;13.418;2022-10-26T15:14:34;2.53;;;2.30;;
22826;SDS011;11580;52.562;13.418;2022-10-26T15:17:02;1.90;;;1.77;;
22826;SDS011;11580;52.562;13.418;2022-10-26T15:19:29;3.03;;;2.17;;
22826;SDS011;11580;52.562;13.418;2022-10-26T15:21:57;2.60;;;2.40;;
22826;SDS011;11580;52.562;13.418;2022-10-26T15:24:26;2.90;;;2.70;;
22826;SDS011;11580;52.562;13.418;2022-10-26T15:26:58;2.50;;;2.30;;
22826;SDS011;11580;52.562;13.418;2022-10-26T15:29:35;3.37;;;3.07;;
22826;SDS011;11580;52.562;13.418;2022-10-26T15:32:17;5.03;;;2.60;;
22826;SDS011;11580;52.562;13.418;2022-10-26T15:35:09;3.30;;;3.00;;
22826;SDS011;11580;52.562;13.418;2022-10-26T15:37:51;4.33;;;2.93;;
22826;SDS011;11580;52.562;13.418;2022-10-26T15:40:20;2.60;;;2.40;;
22826;SDS011;11580;52.562;13.418;2022-10-26T15:42:49;3.07;;;2.87;;